Time;durP1;ratioP1;P1;durP2;ratioP2;P2;SDS_P1;SDS_P2;PMS_P1;PMS_P2;Temp;Humidity;BMP_temperature;BMP_pressure;BME280_temperature;BME280_humidity;BME280_pressure;Samples;Min_cycle;Max_cycle;Signal;HPM_P1;HPM_P2
2021/12/24 00:01:50;;;;;;;31.83;13.85;;;7.10;99.90;;;;;;4981328;28;20124;-73
2021/12/24 00:04:16;;;;;;;33.13;14.30;;;7.10;99.90;;;;;;4994884;28;20076;-71
2021/12/24 00:06:42;;;;;;;38.40;13.73;;;8.10;99.90;;;;;;5005685;28;20784;-72
2021/12/24 00:09:08;;;;;;;33.83;14.25;;;7.70;99.90;;;;;;5006052;28;20033;-71
2021/12/24 00:11:35;;;;;;;35.95;14.35;;;7.50;99.90;;;;;;5019312;28;20030;-72
2021/12/24 00:14:03;;;;;;;28.75;14.23;;;6.60;99.90;;;;;;5015768;28;20581;-74
2021/12/24 00:16:52;;;;;;;31.23;14.05;;;7.70;99.90;;;;;;4991392;28;20436;-75
2021/12/24 00:19:39;;;;;;;34.22;14.00;;;7.40;99.90;;;;;;5000801;28;20137;-71
2021/12/24 00:22:40;;;;;;;30.63;12.40;;;7.50;99.90;;;;;;5012462;28;20186;-73
2021/12/24 00:36:13;;;;;;;32.33;13.95;;;7.40;99.90;;;;;;4984573;28;20057;-74
2021/12/24 00:38:39;;;;;;;35.10;13.43;;;7.90;99.90;;;;;;4988438;28;20421;-74
2021/12/24 00:41:05;;;;;;;41.97;14.40;;;7.90;99.90;;;;;;5011712;28;20111;-76
2021/12/24 00:43:31;;;;;;;43.78;14.82;;;7.40;99.90;;;;;;5013667;28;20489;-76
2021/12/24 00:45:57;;;;;;;38.13;13.32;;;7.80;99.90;;;;;;4963207;28;20088;-74
2021/12/24 00:48:23;;;;;;;36.42;14.02;;;7.60;99.90;;;;;;5013714;28;20052;-75
2021/12/24 00:51:06;;;;;;;30.05;13.00;;;7.30;99.90;;;;;;5009784;28;20037;-76
2021/12/24 00:56:09;;;;;;;46.13;16.38;;;7.30;99.90;;;;;;5018455;28;20073;-75
2021/12/24 00:58:36;;;;;;;29.10;12.40;;;7.20;99.90;;;;;;5013325;28;20077;-74
2021/12/24 01:01:07;;;;;;;26.20;11.77;;;8.00;99.90;;;;;;5001687;28;20052;-75
2021/12/24 01:03:33;;;;;;;22.83;10.60;;;7.90;99.90;;;;;;5016847;28;20060;-76
2021/12/24 01:05:59;;;;;;;33.05;12.77;;;7.70;99.90;;;;;;5014374;28;20128;-77
2021/12/24 01:08:25;;;;;;;28.27;11.13;;;7.20;99.90;;;;;;5002449;28;20461;-75
2021/12/24 01:10:58;;;;;;;30.10;12.40;;;7.50;99.90;;;;;;5013930;28;20077;-74
2021/12/24 01:13:25;;;;;;;27.60;11.85;;;8.00;99.90;;;;;;5015581;28;20041;-77
2021/12/24 01:18:32;;;;;;;33.88;13.70;;;8.10;99.90;;;;;;5016494;28;20049;-78
2021/12/24 01:26:09;;;;;;;33.45;12.30;;;8.50;99.90;;;;;;5030522;28;20513;-76
2021/12/24 01:44:32;;;;;;;;;;;7.20;99.90;;;;;;5007516;28;20709;-76
2021/12/24 01:47:01;;;;;;;22.40;8.25;;;7.80;99.90;;;;;;5025625;28;20003;-74
2021/12/24 01:49:27;;;;;;;16.73;7.10;;;7.20;99.90;;;;;;5013370;28;20099;-76
2021/12/24 01:51:54;;;;;;;18.38;7.88;;;7.40;99.90;;;;;;5014361;28;20377;-75
2021/12/24 01:54:20;;;;;;;18.27;7.78;;;8.10;99.90;;;;;;5022224;28;20473;-75
2021/12/24 01:56:46;;;;;;;20.70;8.27;;;7.20;99.90;;;;;;5026803;28;20112;-75
2021/12/24 01:59:12;;;;;;;15.25;7.50;;;7.70;99.90;;;;;;5015800;28;20394;-77
2021/12/24 02:01:39;;;;;;;17.88;7.30;;;8.30;99.90;;;;;;5005923;28;20057;-76
2021/12/24 02:04:06;;;;;;;15.55;7.20;;;8.00;99.90;;;;;;5000187;28;20381;-74
2021/12/24 02:06:32;;;;;;;14.77;6.35;;;7.70;99.90;;;;;;5015611;28;20395;-75
2021/12/24 02:08:58;;;;;;;13.95;6.30;;;7.80;99.90;;;;;;4997605;28;20029;-75
2021/12/24 02:11:24;;;;;;;15.82;7.00;;;7.80;99.90;;;;;;5017244;28;20037;-75
2021/12/24 02:13:51;;;;;;;13.40;6.05;;;8.30;99.90;;;;;;5029449;28;20045;-75
2021/12/24 02:16:50;;;;;;;14.75;6.20;;;7.60;99.90;;;;;;5030417;28;20042;-75
2021/12/24 02:29:54;;;;;;;11.15;5.53;;;7.60;99.90;;;;;;5013784;28;20501;-76
2021/12/24 02:32:20;;;;;;;11.15;5.53;;;8.60;99.90;;;;;;5027988;28;20131;-76
2021/12/24 02:34:46;;;;;;;14.23;5.20;;;8.00;99.90;;;;;;4980242;28;20077;-75
2021/12/24 02:37:12;;;;;;;10.32;6.13;;;7.70;99.90;;;;;;5013196;28;20505;-77
2021/12/24 02:39:38;;;;;;;10.75;5.57;;;8.90;99.90;;;;;;5016237;28;20033;-75
2021/12/24 02:42:19;;;;;;;10.35;5.40;;;8.90;99.90;;;;;;5023917;28;20555;-77
2021/12/24 02:44:48;;;;;;;11.75;5.22;;;8.50;99.90;;;;;;5014388;28;20037;-76
2021/12/24 02:55:06;;;;;;;12.00;5.28;;;8.90;99.90;;;;;;5012598;28;20049;-75
2021/12/24 02:57:34;;;;;;;10.52;5.65;;;8.00;99.90;;;;;;5011373;28;20072;-76
2021/12/24 03:00:07;;;;;;;12.40;6.10;;;8.50;99.90;;;;;;5012362;28;20175;-77
2021/12/24 03:02:34;;;;;;;11.88;6.68;;;8.40;99.90;;;;;;4981967;28;20128;-75
2021/12/24 03:05:01;;;;;;;15.88;7.10;;;8.90;99.90;;;;;;5015979;28;20041;-75
2021/12/24 03:07:27;;;;;;;13.30;6.35;;;8.90;99.90;;;;;;5030810;28;20033;-75
2021/12/24 03:09:53;;;;;;;16.67;6.65;;;9.10;99.90;;;;;;5012621;28;20430;-76
2021/12/24 03:12:19;;;;;;;12.55;6.13;;;9.20;99.90;;;;;;4998955;28;20040;-76
2021/12/24 03:14:45;;;;;;;12.98;6.72;;;8.30;99.90;;;;;;5012658;28;20119;-75
2021/12/24 03:17:15;;;;;;;15.98;6.38;;;8.50;99.90;;;;;;4983115;28;20076;-75
2021/12/24 03:19:41;;;;;;;13.63;6.35;;;9.20;99.90;;;;;;5014172;28;20537;-74
2021/12/24 03:22:32;;;;;;;14.25;6.30;;;9.20;99.90;;;;;;5014265;28;20144;-75
2021/12/24 03:24:58;;;;;;;10.77;6.00;;;8.20;99.90;;;;;;4994768;28;20037;-75
2021/12/24 03:27:24;;;;;;;14.65;6.88;;;9.00;99.90;;;;;;5012525;28;20489;-76
2021/12/24 03:29:51;;;;;;;14.50;7.13;;;9.20;99.90;;;;;;5012097;28;20044;-75
2021/12/24 03:32:17;;;;;;;18.67;7.32;;;9.10;99.90;;;;;;5019197;28;20029;-75
2021/12/24 03:34:43;;;;;;;17.33;7.72;;;8.30;99.90;;;;;;5015454;28;20048;-75
2021/12/24 03:37:09;;;;;;;24.73;8.43;;;8.60;99.90;;;;;;4996903;28;20066;-75
2021/12/24 03:39:36;;;;;;;21.17;8.82;;;8.30;99.90;;;;;;5011903;28;20055;-75
2021/12/24 03:42:03;;;;;;;26.88;8.20;;;9.40;99.90;;;;;;5012388;28;20393;-74
2021/12/24 03:44:36;;;;;;;26.52;9.48;;;9.50;99.90;;;;;;5011955;28;20075;-74
2021/12/24 03:47:14;;;;;;;25.40;8.88;;;9.60;99.90;;;;;;4994346;28;20052;-75
2021/12/24 03:49:53;;;;;;;33.85;10.18;;;9.10;99.90;;;;;;5011445;28;20033;-76
2021/12/24 03:55:00;;;;;;;44.03;12.90;;;9.60;99.90;;;;;;5020236;28;20124;-76
2021/12/24 03:57:27;;;;;;;29.75;10.73;;;9.60;99.90;;;;;;5025355;28;20120;-75
2021/12/24 03:59:54;;;;;;;35.60;11.20;;;8.80;99.90;;;;;;5011849;28;20510;-74
2021/12/24 04:02:20;;;;;;;33.65;11.00;;;8.80;99.90;;;;;;4995320;28;20041;-77
2021/12/24 04:04:46;;;;;;;43.42;11.75;;;8.70;99.90;;;;;;5011666;28;20041;-74
2021/12/24 04:07:13;;;;;;;45.42;11.57;;;9.60;99.90;;;;;;5015851;28;20033;-75
2021/12/24 04:09:46;;;;;;;30.33;10.68;;;9.90;99.90;;;;;;5010309;28;20120;-76
2021/12/24 04:12:11;;;;;;;42.03;11.00;;;9.90;99.90;;;;;;5011899;28;20045;-76
2021/12/24 04:14:37;;;;;;;34.85;11.57;;;9.90;99.90;;;;;;5013085;28;20056;-75
2021/12/24 04:17:03;;;;;;;46.30;11.50;;;9.70;99.90;;;;;;5015793;28;20116;-75
2021/12/24 04:24:51;;;;;;;59.50;15.40;;;9.60;99.90;;;;;;5013775;28;20038;-75
2021/12/24 04:25:04;;;;;;;52.58;13.23;;;10.00;99.90;;;;;;5011563;28;20042;-74
2021/12/24 04:27:30;;;;;;;55.80;14.20;;;10.20;99.90;;;;;;5013695;28;20041;-74
2021/12/24 04:30:06;;;;;;;48.42;14.02;;;9.00;99.90;;;;;;5002380;28;20041;-75
2021/12/24 04:32:57;;;;;;;48.15;14.13;;;10.20;99.90;;;;;;5015591;28;20053;-74
2021/12/24 04:51:32;;;;;;;42.15;12.77;;;10.30;99.90;;;;;;5012588;28;20045;-74
2021/12/24 05:02:34;;;;;;;44.07;15.10;;;10.40;99.90;;;;;;5013483;28;20059;-75
2021/12/24 05:05:45;;;;;;;50.05;17.30;;;9.30;99.90;;;;;;5014184;28;20125;-73
2021/12/24 05:08:28;;;;;;;48.85;16.55;;;9.90;99.90;;;;;;5006986;28;20091;-74
2021/12/24 05:10:37;;;;;;;57.53;18.75;;;9.90;99.90;;;;;;5017202;28;20044;-75
2021/12/24 05:13:04;;;;;;;52.17;17.00;;;10.50;99.90;;;;;;5018341;28;20045;-73
2021/12/24 05:15:31;;;;;;;53.10;19.10;;;10.50;99.90;;;;;;5028132;28;20102;-74
2021/12/24 05:23:06;;;;;;;59.80;17.50;;;10.30;99.90;;;;;;5015183;28;20042;-74
2021/12/24 05:25:35;;;;;;;53.67;19.20;;;10.50;99.90;;;;;;5018262;28;20035;-74
2021/12/24 05:28:01;;;;;;;50.92;18.15;;;9.40;99.90;;;;;;5029962;28;20120;-74
2021/12/24 05:30:27;;;;;;;52.33;19.23;;;10.40;99.90;;;;;;5014341;28;20124;-73
2021/12/24 05:32:53;;;;;;;58.78;19.85;;;9.60;99.90;;;;;;5016794;28;20104;-75
2021/12/24 05:35:19;;;;;;;63.45;21.08;;;9.50;99.90;;;;;;4998679;28;20073;-77
2021/12/24 05:37:44;;;;;;;58.08;19.98;;;9.90;99.90;;;;;;4990355;28;20473;-75
2021/12/24 05:40:10;;;;;;;66.00;24.00;;;9.50;99.90;;;;;;5013616;28;20040;-75
2021/12/24 05:42:36;;;;;;;59.83;22.33;;;9.40;99.90;;;;;;4997531;28;20489;-77
2021/12/24 05:45:05;;;;;;;63.80;22.85;;;10.70;99.90;;;;;;4998219;28;20041;-76
2021/12/24 05:47:31;;;;;;;64.32;22.08;;;9.50;99.90;;;;;;5009600;28;20472;-73
2021/12/24 05:49:58;;;;;;;71.68;23.13;;;10.50;99.90;;;;;;5021080;28;20037;-74
2021/12/24 05:52:24;;;;;;;65.20;23.15;;;10.70;99.90;;;;;;5024263;28;20096;-75
2021/12/24 05:54:49;;;;;;;78.20;26.63;;;9.50;99.90;;;;;;5014283;28;20037;-76
2021/12/24 05:57:15;;;;;;;73.03;24.45;;;9.50;99.90;;;;;;5017824;28;20052;-73
2021/12/24 05:59:41;;;;;;;76.25;28.55;;;10.30;99.90;;;;;;5026723;28;20033;-78
2021/12/24 06:02:07;;;;;;;63.03;21.20;;;9.90;99.90;;;;;;5014798;28;20037;-75
2021/12/24 06:04:33;;;;;;;52.70;20.70;;;9.50;99.90;;;;;;5017577;28;20423;-75
2021/12/24 06:06:59;;;;;;;54.47;21.58;;;9.40;99.90;;;;;;5011539;28;20049;-74
2021/12/24 06:09:25;;;;;;;39.13;17.38;;;9.60;99.90;;;;;;5028187;28;20037;-74
2021/12/24 06:11:51;;;;;;;60.67;20.98;;;10.00;99.90;;;;;;5013593;28;20164;-74
2021/12/24 06:14:16;;;;;;;49.35;18.20;;;10.30;99.90;;;;;;4998155;28;20037;-74
2021/12/24 06:16:59;;;;;;;36.78;16.25;;;10.70;99.90;;;;;;5012926;28;20213;-72
2021/12/24 06:19:26;;;;;;;46.95;18.58;;;10.70;99.90;;;;;;5000081;28;20041;-73
2021/12/24 06:21:56;;;;;;;48.50;20.65;;;10.60;99.90;;;;;;5017422;28;20489;-73
2021/12/24 06:24:22;;;;;;;38.22;15.90;;;9.60;99.90;;;;;;5012081;28;20041;-72
2021/12/24 06:26:49;;;;;;;36.17;14.82;;;10.70;99.90;;;;;;5012850;28;20042;-73
2021/12/24 06:29:15;;;;;;;40.35;16.90;;;10.70;99.90;;;;;;5014104;28;20465;-75
2021/12/24 06:31:41;;;;;;;57.13;19.50;;;10.60;99.90;;;;;;4997390;28;20482;-75
2021/12/24 06:34:07;;;;;;;47.70;17.17;;;10.40;99.90;;;;;;5012938;28;20041;-74
2021/12/24 06:36:36;;;;;;;41.90;14.82;;;10.70;99.90;;;;;;4997208;28;20149;-74
2021/12/24 06:39:04;;;;;;;42.70;15.18;;;9.50;99.90;;;;;;4996305;28;20689;-74
2021/12/24 06:41:31;;;;;;;35.72;13.95;;;9.80;99.90;;;;;;5013459;28;20048;-74
2021/12/24 06:43:57;;;;;;;35.22;12.35;;;9.50;99.90;;;;;;5012510;28;20033;-73
2021/12/24 06:46:23;;;;;;;30.60;11.55;;;10.60;99.90;;;;;;5013483;28;20053;-73
2021/12/24 06:48:53;;;;;;;34.38;11.80;;;9.60;99.90;;;;;;5028478;28;20033;-74
2021/12/24 06:51:20;;;;;;;33.47;11.82;;;10.70;99.90;;;;;;4997680;28;20117;-74
2021/12/24 06:53:46;;;;;;;42.22;14.80;;;9.60;99.90;;;;;;5012905;28;20099;-74
2021/12/24 06:56:11;;;;;;;26.40;10.40;;;10.40;99.90;;;;;;4978984;28;20041;-73
2021/12/24 06:58:38;;;;;;;32.45;10.73;;;10.30;99.90;;;;;;4997727;28;20033;-73
2021/12/24 07:01:03;;;;;;;22.48;9.40;;;9.70;99.90;;;;;;5012709;28;20095;-73
2021/12/24 07:03:29;;;;;;;26.80;10.27;;;9.40;99.90;;;;;;5016284;28;20041;-74
2021/12/24 07:05:55;;;;;;;31.63;9.07;;;10.00;99.90;;;;;;5020868;28;20040;-72
2021/12/24 07:08:21;;;;;;;31.42;10.40;;;10.60;99.90;;;;;;5013939;28;20413;-74
2021/12/24 07:10:47;;;;;;;30.35;10.32;;;9.90;99.90;;;;;;5011761;28;20041;-73
2021/12/24 07:13:13;;;;;;;29.25;10.40;;;10.20;99.90;;;;;;5012304;28;20045;-72
2021/12/24 07:15:39;;;;;;;29.65;10.20;;;10.40;99.90;;;;;;5012190;28;20041;-74
2021/12/24 07:18:05;;;;;;;31.58;11.32;;;9.50;99.90;;;;;;4992617;28;20041;-74
2021/12/24 07:20:30;;;;;;;30.63;11.45;;;9.40;99.90;;;;;;5010237;28;20049;-72
2021/12/24 07:22:56;;;;;;;33.67;10.73;;;9.50;99.90;;;;;;5010789;28;20386;-75
2021/12/24 07:25:22;;;;;;;29.90;11.38;;;9.90;99.90;;;;;;5008159;28;20049;-75
2021/12/24 07:27:48;;;;;;;35.72;11.70;;;10.40;99.90;;;;;;5010551;28;20029;-73
2021/12/24 07:30:14;;;;;;;32.42;11.25;;;10.50;99.90;;;;;;5010714;28;20037;-75
2021/12/24 07:32:41;;;;;;;26.48;11.88;;;9.70;99.90;;;;;;4994586;28;20492;-70
2021/12/24 07:35:08;;;;;;;31.38;11.18;;;10.10;99.90;;;;;;5005655;28;20044;-73
2021/12/24 07:37:34;;;;;;;33.15;11.70;;;10.50;99.90;;;;;;5003199;28;20528;-74
2021/12/24 07:40:02;;;;;;;32.17;11.90;;;9.50;99.90;;;;;;5016886;28;20060;-74
2021/12/24 07:42:28;;;;;;;24.63;10.18;;;10.40;99.90;;;;;;4975531;28;20755;-74
2021/12/24 07:44:54;;;;;;;23.50;8.90;;;9.90;99.90;;;;;;4969236;28;20076;-76
2021/12/24 07:47:27;;;;;;;20.60;8.65;;;9.30;99.90;;;;;;5008487;28;20465;-74
2021/12/24 07:50:15;;;;;;;22.52;9.05;;;9.60;99.90;;;;;;5010384;28;20555;-73
2021/12/24 07:52:42;;;;;;;21.35;8.75;;;9.40;99.90;;;;;;5005742;28;20069;-74
2021/12/24 07:55:09;;;;;;;16.10;7.40;;;9.10;99.90;;;;;;4994028;28;20679;-74
2021/12/24 07:57:35;;;;;;;14.55;7.47;;;9.90;99.90;;;;;;5009825;28;20041;-73
2021/12/24 08:00:01;;;;;;;25.63;8.45;;;9.10;99.90;;;;;;5009752;28;20396;-75
2021/12/24 08:02:28;;;;;;;16.35;7.47;;;10.00;99.90;;;;;;4992563;28;20124;-75
2021/12/24 08:04:54;;;;;;;17.65;8.40;;;9.10;99.90;;;;;;5011427;28;20112;-73
2021/12/24 08:07:20;;;;;;;21.02;8.02;;;10.10;99.90;;;;;;5014705;28;20041;-73
2021/12/24 08:09:50;;;;;;;18.08;7.78;;;9.60;99.90;;;;;;5017067;28;20049;-73
2021/12/24 08:12:17;;;;;;;19.58;7.38;;;10.20;99.90;;;;;;5014868;28;20091;-74
2021/12/24 08:14:43;;;;;;;16.15;7.45;;;10.20;99.90;;;;;;5016398;28;20041;-73
2021/12/24 08:17:10;;;;;;;22.02;7.30;;;9.90;99.90;;;;;;5015348;28;20041;-74
2021/12/24 08:19:36;;;;;;;14.05;6.47;;;9.90;99.90;;;;;;5016746;28;20029;-73
2021/12/24 08:22:02;;;;;;;22.45;7.60;;;10.10;99.90;;;;;;4997168;28;20045;-73
2021/12/24 08:24:28;;;;;;;16.05;8.13;;;10.20;99.90;;;;;;5016193;28;20070;-75
2021/12/24 08:26:54;;;;;;;18.15;7.22;;;10.20;99.90;;;;;;5000104;28;20052;-77
2021/12/24 08:29:21;;;;;;;16.05;7.72;;;9.50;99.90;;;;;;5000574;28;20693;-74
2021/12/24 08:31:49;;;;;;;18.65;7.43;;;9.50;99.90;;;;;;5015091;28;20085;-74
2021/12/24 08:34:17;;;;;;;19.15;8.52;;;10.10;99.90;;;;;;5032661;28;20045;-73
2021/12/24 08:36:43;;;;;;;18.05;8.27;;;9.60;99.90;;;;;;5016162;28;20072;-75
2021/12/24 08:39:09;;;;;;;20.73;9.02;;;10.20;99.90;;;;;;5014469;28;20065;-75
2021/12/24 08:41:35;;;;;;;18.40;8.60;;;10.30;99.90;;;;;;5015501;28;20392;-74
2021/12/24 08:44:02;;;;;;;16.80;8.57;;;9.80;99.90;;;;;;4998908;28;20441;-72
2021/12/24 08:46:28;;;;;;;19.17;8.93;;;9.70;99.90;;;;;;5015883;28;20425;-71
2021/12/24 08:48:54;;;;;;;18.52;8.30;;;9.20;99.90;;;;;;5015340;28;20061;-72
2021/12/24 08:51:20;;;;;;;19.83;8.40;;;10.30;99.90;;;;;;5008107;28;20069;-73
2021/12/24 08:53:45;;;;;;;19.23;9.70;;;10.10;99.90;;;;;;4998370;28;20502;-73
2021/12/24 08:56:11;;;;;;;20.33;8.75;;;9.70;99.90;;;;;;5001406;28;20111;-73
2021/12/24 08:58:37;;;;;;;23.67;8.75;;;9.80;99.90;;;;;;5014879;28;20064;-73
2021/12/24 09:01:04;;;;;;;22.95;9.18;;;10.10;99.90;;;;;;5015965;28;20045;-73
2021/12/24 09:03:30;;;;;;;25.58;8.45;;;9.50;99.90;;;;;;5013752;28;20100;-72
2021/12/24 09:05:56;;;;;;;20.45;8.48;;;10.20;99.90;;;;;;5035251;28;20472;-72
2021/12/24 09:08:21;;;;;;;27.40;9.32;;;10.00;99.90;;;;;;5012455;28;20496;-73
2021/12/24 09:10:48;;;;;;;20.25;8.65;;;10.00;99.90;;;;;;4990541;28;20128;-73
2021/12/24 09:13:14;;;;;;;27.83;9.57;;;9.70;99.90;;;;;;5011707;28;20080;-73
2021/12/24 09:15:40;;;;;;;21.95;8.38;;;9.80;99.90;;;;;;5013124;28;20052;-73
2021/12/24 09:18:07;;;;;;;20.30;9.10;;;9.40;99.90;;;;;;5013666;28;20369;-73
2021/12/24 09:20:38;;;;;;;7.22;4.82;;;9.10;99.90;;;;;;5009117;28;20042;-74
2021/12/24 09:23:05;;;;;;;7.60;4.15;;;9.10;99.90;;;;;;5011875;28;20413;-71
2021/12/24 09:25:32;;;;;;;6.45;4.50;;;8.40;99.90;;;;;;5008833;28;20088;-71
2021/12/24 09:27:59;;;;;;;5.13;4.15;;;8.30;99.90;;;;;;4988228;28;20370;-72
2021/12/24 09:30:26;;;;;;;4.80;3.80;;;8.90;99.90;;;;;;5010942;28;20041;-74
2021/12/24 09:32:51;;;;;;;4.13;3.33;;;8.60;99.90;;;;;;5013870;28;20052;-74
2021/12/24 09:35:19;;;;;;;6.13;4.22;;;7.90;99.90;;;;;;5005415;28;20050;-74
2021/12/24 09:37:44;;;;;;;6.25;4.00;;;7.60;99.90;;;;;;5011354;28;20061;-74
2021/12/24 09:40:12;;;;;;;5.13;3.92;;;7.70;99.90;;;;;;4993564;28;20052;-73
2021/12/24 09:42:38;;;;;;;4.82;3.28;;;7.60;99.90;;;;;;5012448;28;20096;-73
2021/12/24 09:45:06;;;;;;;6.18;4.20;;;7.60;99.90;;;;;;5029094;28;20404;-73
2021/12/24 09:47:32;;;;;;;5.53;4.00;;;7.90;99.90;;;;;;5029244;28;20041;-73
2021/12/24 09:49:58;;;;;;;5.28;3.78;;;7.40;99.90;;;;;;5010966;28;20397;-75
2021/12/24 09:52:24;;;;;;;5.05;3.60;;;7.40;99.90;;;;;;4996496;28;20041;-73
2021/12/24 09:54:50;;;;;;;6.32;3.92;;;7.50;99.90;;;;;;5012524;28;20120;-73
2021/12/24 09:57:16;;;;;;;5.15;3.55;;;7.50;99.90;;;;;;5012492;28;20573;-73
2021/12/24 09:59:42;;;;;;;5.78;3.88;;;7.40;99.90;;;;;;5013662;28;20045;-74
2021/12/24 10:02:15;;;;;;;5.53;3.83;;;7.80;99.90;;;;;;5028243;28;20137;-73
2021/12/24 10:04:42;;;;;;;4.78;3.72;;;7.40;99.90;;;;;;5013133;28;20488;-73
2021/12/24 10:07:13;;;;;;;5.45;4.03;;;7.50;99.90;;;;;;4995917;28;20046;-73
2021/12/24 10:09:45;;;;;;;6.13;4.20;;;8.20;99.90;;;;;;5012049;28;20120;-73
2021/12/24 10:12:22;;;;;;;4.75;3.47;;;7.90;99.90;;;;;;5012869;28;20037;-73
2021/12/24 10:14:54;;;;;;;7.32;4.30;;;7.70;99.90;;;;;;4995999;28;20049;-72
2021/12/24 10:17:23;;;;;;;5.88;4.15;;;8.00;99.90;;;;;;5012731;28;20131;-74
2021/12/24 10:19:53;;;;;;;4.97;3.90;;;7.40;99.90;;;;;;5012235;28;20116;-73
2021/12/24 10:22:20;;;;;;;5.28;3.78;;;7.70;99.90;;;;;;5011485;28;20038;-73
2021/12/24 10:24:58;;;;;;;5.50;3.83;;;7.90;99.90;;;;;;5027432;28;20032;-73
2021/12/24 10:27:29;;;;;;;5.28;3.72;;;7.80;99.90;;;;;;5007414;28;20084;-73
2021/12/24 10:29:55;;;;;;;6.18;3.92;;;7.60;99.90;;;;;;4994335;28;20802;-73
2021/12/24 10:32:20;;;;;;;5.95;4.20;;;7.80;99.90;;;;;;5011488;28;20048;-74
2021/12/24 10:34:47;;;;;;;5.00;3.35;;;7.20;99.90;;;;;;5010916;28;20029;-73
2021/12/24 10:37:31;;;;;;;5.70;3.75;;;7.70;99.90;;;;;;5010819;28;20049;-72
2021/12/24 10:40:01;;;;;;;25.55;5.55;;;7.40;99.90;;;;;;5009144;28;21714;-74
2021/12/24 10:42:35;;;;;;;5.00;3.50;;;7.30;99.90;;;;;;5010701;28;20099;-72
2021/12/24 10:45:22;;;;;;;5.50;3.90;;;7.60;99.90;;;;;;5011208;28;20029;-72
2021/12/24 10:47:48;;;;;;;4.97;3.38;;;7.70;99.90;;;;;;5010504;28;20041;-72
2021/12/24 10:55:38;;;;;;;5.35;3.97;;;7.90;99.90;;;;;;5007689;28;20129;-74
2021/12/24 10:58:13;;;;;;;5.97;3.78;;;7.40;99.90;;;;;;4995483;28;20456;-67
2021/12/24 11:00:43;;;;;;;4.78;3.30;;;7.80;99.90;;;;;;5010751;28;20680;-72
2021/12/24 11:03:19;;;;;;;5.50;3.78;;;7.60;99.90;;;;;;5009966;28;20512;-73
2021/12/24 11:05:47;;;;;;;5.85;3.40;;;7.50;99.90;;;;;;4994811;28;20033;-73
2021/12/24 11:08:18;;;;;;;4.95;3.30;;;7.60;99.90;;;;;;5008620;28;20045;-73
2021/12/24 11:10:47;;;;;;;5.38;3.60;;;7.30;99.90;;;;;;4990117;28;20033;-75
2021/12/24 11:13:15;;;;;;;5.25;3.40;;;6.90;99.90;;;;;;5003514;28;20055;-72
2021/12/24 11:15:47;;;;;;;7.65;5.07;;;7.60;99.90;;;;;;5019489;28;20045;-72
2021/12/24 11:18:15;;;;;;;5.65;4.07;;;7.60;99.90;;;;;;4987193;28;20057;-72
2021/12/24 11:20:42;;;;;;;5.78;3.65;;;7.60;99.90;;;;;;5005851;28;20060;-74
2021/12/24 11:23:16;;;;;;;5.47;3.55;;;7.50;99.90;;;;;;4985305;28;20756;-74
2021/12/24 11:25:45;;;;;;;4.70;3.28;;;6.80;99.90;;;;;;5020344;28;20038;-73
2021/12/24 11:28:13;;;;;;;5.30;3.50;;;7.10;99.90;;;;;;5002068;28;20152;-74
2021/12/24 11:30:43;;;;;;;6.88;4.30;;;7.30;99.90;;;;;;5003420;28;20065;-76
2021/12/24 11:33:16;;;;;;;6.25;3.95;;;7.00;99.90;;;;;;5001010;28;20103;-72
2021/12/24 11:35:43;;;;;;;4.88;3.90;;;6.90;99.90;;;;;;4988198;28;20676;-73
2021/12/24 11:38:14;;;;;;;4.70;3.45;;;7.60;99.90;;;;;;4985516;28;20088;-72
2021/12/24 11:40:41;;;;;;;5.20;4.18;;;6.80;99.90;;;;;;5003530;28;20140;-72
2021/12/24 11:43:07;;;;;;;6.07;4.22;;;7.30;99.90;;;;;;5000058;28;20068;-73
2021/12/24 11:45:33;;;;;;;10.25;4.20;;;7.00;99.90;;;;;;5005078;28;20041;-73
2021/12/24 11:48:01;;;;;;;5.47;3.60;;;7.20;99.90;;;;;;5002903;28;20041;-74
2021/12/24 11:50:28;;;;;;;5.90;3.33;;;6.80;99.90;;;;;;5003450;28;20060;-74
2021/12/24 11:52:57;;;;;;;6.95;4.22;;;7.40;99.90;;;;;;4986469;28;20499;-73
2021/12/24 11:55:24;;;;;;;5.25;3.70;;;6.80;99.90;;;;;;4987456;28;20840;-71
2021/12/24 11:57:53;;;;;;;6.20;3.90;;;7.40;99.90;;;;;;5007961;28;20448;-73
2021/12/24 12:00:40;;;;;;;5.85;3.78;;;7.30;99.90;;;;;;5000850;28;20045;-73
2021/12/24 12:03:08;;;;;;;5.57;3.60;;;7.50;99.90;;;;;;5003851;28;20084;-74
2021/12/24 12:05:41;;;;;;;5.18;3.63;;;6.80;99.90;;;;;;5004595;28;20060;-73
2021/12/24 12:08:25;;;;;;;5.65;3.47;;;7.30;99.90;;;;;;5014134;28;20108;-73
2021/12/24 12:10:57;;;;;;;5.38;4.10;;;7.40;99.90;;;;;;5006520;28;20075;-73
2021/12/24 12:13:41;;;;;;;6.32;4.22;;;7.40;99.90;;;;;;5002349;28;20041;-72
2021/12/24 12:16:09;;;;;;;5.80;3.83;;;7.40;99.90;;;;;;5016779;28;20236;-74
2021/12/24 12:21:38;;;;;;;5.30;3.58;;;6.90;99.90;;;;;;4971686;28;20099;-73
2021/12/24 12:26:50;;;;;;;5.97;3.72;;;7.20;99.90;;;;;;5002507;28;20067;-72
2021/12/24 12:29:42;;;;;;;5.32;3.95;;;7.60;99.90;;;;;;4999301;28;20399;-73
2021/12/24 12:32:16;;;;;;;4.93;3.67;;;7.60;99.90;;;;;;4999937;28;20050;-74
2021/12/24 12:34:48;;;;;;;4.53;3.38;;;7.60;99.90;;;;;;5000731;28;20045;-74
2021/12/24 12:37:18;;;;;;;5.45;3.92;;;7.20;99.90;;;;;;5003786;28;20145;-72
2021/12/24 12:39:47;;;;;;;5.80;3.75;;;7.10;99.90;;;;;;5004290;28;20053;-73
2021/12/24 12:42:15;;;;;;;5.93;3.90;;;7.50;99.90;;;;;;5006208;28;20103;-73
2021/12/24 12:44:46;;;;;;;6.35;3.72;;;7.60;99.90;;;;;;5003516;28;20536;-72
2021/12/24 12:47:17;;;;;;;5.28;3.58;;;7.80;99.90;;;;;;5001414;28;20041;-77
2021/12/24 12:49:44;;;;;;;5.65;3.85;;;7.50;99.90;;;;;;5003818;28;20049;-72
2021/12/24 12:52:29;;;;;;;5.75;4.03;;;8.00;99.90;;;;;;4988755;28;20052;-73
2021/12/24 12:54:56;;;;;;;5.47;3.53;;;8.00;99.90;;;;;;5007692;28;20381;-72
2021/12/24 12:57:36;;;;;;;6.00;3.85;;;7.50;99.90;;;;;;5002725;28;20057;-72
2021/12/24 13:00:19;;;;;;;5.45;3.88;;;7.70;99.90;;;;;;5003332;28;20077;-73
2021/12/24 13:03:06;;;;;;;5.50;3.90;;;7.60;99.90;;;;;;4991839;28;20044;-73
2021/12/24 13:05:53;;;;;;;7.70;3.78;;;8.10;99.90;;;;;;5008298;28;20045;-73
2021/12/24 13:08:21;;;;;;;5.18;3.97;;;8.20;99.90;;;;;;5003470;28;20041;-73
2021/12/24 13:11:11;;;;;;;5.20;3.70;;;7.60;99.90;;;;;;5007252;28;20425;-73
2021/12/24 13:13:54;;;;;;;4.38;3.60;;;7.90;99.90;;;;;;4999239;28;20045;-72
2021/12/24 13:16:37;;;;;;;5.82;3.50;;;7.60;99.90;;;;;;5008203;28;20767;-73
2021/12/24 13:24:52;;;;;;;6.05;4.00;;;8.30;99.90;;;;;;5000107;28;20619;-75
2021/12/24 13:27:20;;;;;;;5.50;4.57;;;7.80;99.90;;;;;;5007266;28;20138;-74
2021/12/24 13:29:46;;;;;;;4.75;3.70;;;7.90;99.90;;;;;;5005140;28;20833;-74
2021/12/24 13:32:12;;;;;;;6.32;4.20;;;8.30;99.90;;;;;;5005142;28;20033;-72
2021/12/24 13:34:38;;;;;;;6.05;3.97;;;7.70;99.90;;;;;;5005699;28;20037;-74
2021/12/24 13:37:14;;;;;;;5.82;4.38;;;7.70;99.90;;;;;;5006326;28;20037;-73
2021/12/24 13:39:49;;;;;;;4.97;4.00;;;8.30;99.90;;;;;;5015987;28;20106;-75
2021/12/24 13:42:15;;;;;;;4.88;3.67;;;8.30;99.90;;;;;;5007310;28;20058;-73
2021/12/24 13:44:40;;;;;;;5.68;4.25;;;7.70;99.90;;;;;;4992569;28;20045;-75
2021/12/24 13:47:17;;;;;;;7.50;4.40;;;8.10;99.90;;;;;;5005512;28;20831;-72
2021/12/24 13:50:22;;;;;;;7.65;4.45;;;7.80;99.90;;;;;;5005758;28;20425;-73
2021/12/24 13:55:40;;;;;;;5.30;3.97;;;7.70;99.90;;;;;;5020810;28;20413;-75
2021/12/24 13:58:11;;;;;;;6.45;4.38;;;8.10;99.90;;;;;;5007011;28;20442;-72
2021/12/24 14:00:45;;;;;;;7.38;3.75;;;8.40;99.90;;;;;;5000424;28;20099;-73
2021/12/24 14:03:11;;;;;;;4.82;4.10;;;8.10;99.90;;;;;;5003716;28;20057;-73
2021/12/24 14:05:52;;;;;;;4.47;3.67;;;8.00;99.90;;;;;;4969229;28;20042;-74
2021/12/24 14:08:21;;;;;;;5.65;3.70;;;7.50;99.90;;;;;;5003482;28;20081;-74
2021/12/24 14:10:49;;;;;;;6.05;3.55;;;8.20;99.90;;;;;;5002216;28;20041;-72
2021/12/24 14:13:26;;;;;;;5.45;3.55;;;7.90;99.90;;;;;;5015678;28;20041;-72
2021/12/24 14:18:48;;;;;;;4.57;3.67;;;8.20;99.90;;;;;;5022205;28;20056;-73
2021/12/24 14:24:14;;;;;;;7.45;4.13;;;7.60;99.90;;;;;;5023694;28;20546;-72
2021/12/24 14:26:50;;;;;;;5.32;4.38;;;7.90;99.90;;;;;;5006111;28;20041;-73
2021/12/24 14:29:31;;;;;;;7.13;4.20;;;7.70;99.90;;;;;;5015250;28;20642;-73
2021/12/24 14:32:17;;;;;;;4.78;3.63;;;7.70;99.90;;;;;;5029795;28;20451;-74
2021/12/24 14:34:51;;;;;;;7.75;3.28;;;7.70;99.90;;;;;;4987843;28;20046;-73
2021/12/24 14:37:25;;;;;;;3.60;2.65;;;7.90;99.90;;;;;;5008336;28;20100;-73
2021/12/24 14:39:58;;;;;;;4.43;2.95;;;7.70;99.90;;;;;;5010188;28;20087;-74
2021/12/24 14:42:36;;;;;;;4.88;3.35;;;8.10;99.90;;;;;;5022316;28;20103;-73
2021/12/24 14:45:34;;;;;;;6.00;2.28;;;8.00;99.90;;;;;;5005603;28;20856;-74
2021/12/24 14:48:21;;;;;;;3.08;2.30;;;7.70;99.90;;;;;;5005719;28;20100;-73
2021/12/24 14:51:00;;;;;;;3.65;1.80;;;7.40;99.90;;;;;;5003294;28;20037;-73
2021/12/24 14:53:36;;;;;;;2.35;1.83;;;7.80;99.90;;;;;;5014937;28;20592;-73
2021/12/24 14:56:21;;;;;;;4.00;1.90;;;7.80;99.90;;;;;;5013632;28;20680;-74